createdAt,value
2022-10-20T00:00:36.226Z,5.45
2022-10-20T00:01:57.776Z,5.49
2022-10-20T00:02:59.477Z,5.78
2022-10-20T00:04:01.625Z,6.06
2022-10-20T00:05:03.614Z,5.65
2022-10-20T00:06:17.410Z,5.42
2022-10-20T00:07:19.041Z,5.49
2022-10-20T00:08:21.404Z,6.05
2022-10-20T00:09:23.031Z,5.88
2022-10-20T00:10:24.672Z,5.30
2022-10-20T00:11:28.331Z,5.76
2022-10-20T00:12:29.922Z,5.69
2022-10-20T00:13:31.842Z,5.79
2022-10-20T00:14:33.601Z,5.44
2022-10-20T00:15:35.507Z,5.68
2022-10-20T00:16:39.154Z,5.59
2022-10-20T00:17:40.888Z,5.67
2022-10-20T00:18:43.562Z,5.58
2022-10-20T00:19:48.173Z,5.57
2022-10-20T00:20:51.113Z,5.36
2022-10-20T00:21:52.769Z,5.72
2022-10-20T00:22:54.397Z,5.99
2022-10-20T00:23:59.761Z,5.75
2022-10-20T00:25:01.500Z,6.18
2022-10-20T00:26:07.104Z,6.14
2022-10-20T00:27:09.344Z,5.85
2022-10-20T00:28:11.473Z,6.53
2022-10-20T00:29:13.735Z,5.91
2022-10-20T00:30:15.378Z,5.63
2022-10-20T00:31:19.775Z,6.42
2022-10-20T00:32:21.396Z,5.90
2022-10-20T00:33:24.507Z,6.13
2022-10-20T00:34:26.218Z,6.17
2022-10-20T00:35:27.814Z,6.25
2022-10-20T00:36:29.577Z,6.17
2022-10-20T00:37:31.180Z,6.13
2022-10-20T00:38:34.693Z,6.09
2022-10-20T00:39:36.445Z,5.94
2022-10-20T00:40:38.084Z,6.36
2022-10-20T00:41:40.405Z,6.38
2022-10-20T00:42:46.462Z,6.13
2022-10-20T00:43:57.410Z,6.11
2022-10-20T00:45:00.624Z,6.02
2022-10-20T00:46:02.580Z,5.79
2022-10-20T00:47:04.407Z,6.44
2022-10-20T00:48:16.064Z,6.12
2022-10-20T00:49:25.195Z,5.51
2022-10-20T00:50:33.173Z,5.61
2022-10-20T00:51:35.359Z,5.32
2022-10-20T00:52:38.839Z,5.95
2022-10-20T00:53:40.503Z,5.25
2022-10-20T00:54:42.210Z,5.32
2022-10-20T00:55:48.090Z,5.44
2022-10-20T00:56:51.593Z,5.48
2022-10-20T00:57:57.346Z,5.84
2022-10-20T00:59:01.801Z,6.01
2022-10-20T01:00:05.556Z,5.45
2022-10-20T01:01:07.570Z,5.43
2022-10-20T01:02:10.591Z,5.90
2022-10-20T01:03:20.780Z,5.93
2022-10-20T01:04:23.433Z,6.17
2022-10-20T01:05:25.805Z,5.79
2022-10-20T01:06:28.153Z,6.23
2022-10-20T01:07:29.791Z,5.93
2022-10-20T01:08:31.448Z,6.26
2022-10-20T01:09:33.931Z,6.71
2022-10-20T01:11:02.448Z,5.88
2022-10-20T01:12:28.595Z,5.99
2022-10-20T01:13:59.299Z,6.00
2022-10-20T01:15:28.357Z,6.57
2022-10-20T01:17:11.526Z,6.38
2022-10-20T01:18:31.226Z,6.04
2022-10-20T01:20:09.050Z,6.16
2022-10-20T01:21:41.324Z,5.76
2022-10-20T01:23:16.305Z,6.63
2022-10-20T01:24:30.598Z,5.77
2022-10-20T01:26:22.089Z,6.26
2022-10-20T01:27:31.177Z,5.88
2022-10-20T01:28:59.790Z,6.11
2022-10-20T01:30:12.390Z,6.39
2022-10-20T01:31:25.284Z,5.83
2022-10-20T01:32:41.601Z,6.15
2022-10-20T01:33:56.943Z,6.15
2022-10-20T01:35:25.065Z,6.34
2022-10-20T01:36:47.435Z,6.82
2022-10-20T01:37:55.888Z,6.48
2022-10-20T01:39:29.639Z,6.02
2022-10-20T01:40:51.250Z,6.49
2022-10-20T01:41:59.043Z,7.13
2022-10-20T01:43:08.390Z,6.80
2022-10-20T01:44:16.080Z,7.72
2022-10-20T01:45:22.555Z,7.79
2022-10-20T01:46:27.863Z,7.12
2022-10-20T01:47:32.536Z,7.48
2022-10-20T01:48:37.920Z,7.42
2022-10-20T01:49:44.563Z,6.72
2022-10-20T01:50:49.504Z,6.31
2022-10-20T01:51:51.278Z,6.85
2022-10-20T01:52:59.813Z,6.83
2022-10-20T01:54:01.430Z,6.31
2022-10-20T01:55:14.837Z,6.96
2022-10-20T01:56:40.255Z,6.54
2022-10-20T01:58:00.218Z,6.63
2022-10-20T01:59:20.581Z,6.67
2022-10-20T02:00:23.178Z,6.24
2022-10-20T02:01:45.079Z,6.44
2022-10-20T02:03:10.093Z,6.40
2022-10-20T02:04:12.706Z,6.30
2022-10-20T02:05:44.503Z,6.60
2022-10-20T02:07:01.630Z,6.67
2022-10-20T02:08:34.393Z,6.33
2022-10-20T02:09:46.394Z,7.10
2022-10-20T02:10:52.254Z,6.86
2022-10-20T02:12:13.406Z,6.69
2022-10-20T02:13:18.661Z,7.17
2022-10-20T02:14:22.770Z,6.41
2022-10-20T02:15:27.877Z,6.47
2022-10-20T02:16:46.480Z,6.34
2022-10-20T02:17:54.010Z,6.55
2022-10-20T02:20:00.773Z,6.31
2022-10-20T02:21:05.430Z,6.87
2022-10-20T02:22:09.802Z,6.81
2022-10-20T02:23:11.994Z,6.11
2022-10-20T02:24:17.328Z,6.71
2022-10-20T02:25:20.307Z,6.05
2022-10-20T02:26:25.470Z,6.56
2022-10-20T02:27:35.435Z,6.50
2022-10-20T02:28:43.070Z,6.55
2022-10-20T02:29:50.682Z,6.88
2022-10-20T02:30:52.777Z,6.06
2022-10-20T02:31:55.973Z,5.89
2022-10-20T02:32:57.609Z,5.39
2022-10-20T02:33:59.284Z,6.23
2022-10-20T02:35:06.709Z,5.78
2022-10-20T02:36:16.833Z,5.62
2022-10-20T02:37:18.496Z,5.81
2022-10-20T02:38:20.162Z,6.24
2022-10-20T02:39:21.920Z,6.23
2022-10-20T02:40:23.854Z,5.54
2022-10-20T02:41:26.665Z,5.20
2022-10-20T02:42:28.267Z,5.63
2022-10-20T02:43:30.146Z,5.86
2022-10-20T02:44:31.946Z,5.98
2022-10-20T02:45:33.557Z,6.31
2022-10-20T02:46:35.161Z,5.91
2022-10-20T02:47:37.081Z,6.06
2022-10-20T02:48:39.148Z,5.43
2022-10-20T02:49:40.786Z,5.46
2022-10-20T02:50:42.526Z,5.96
2022-10-20T02:51:44.133Z,4.95
2022-10-20T02:52:45.717Z,5.37
2022-10-20T02:53:47.465Z,5.01
2022-10-20T02:54:49.041Z,5.42
2022-10-20T02:55:50.614Z,5.23
2022-10-20T02:56:52.200Z,5.26
2022-10-20T02:57:54.062Z,5.90
2022-10-20T02:58:55.768Z,5.81
2022-10-20T02:59:57.468Z,5.88
2022-10-20T03:00:59.156Z,6.54
2022-10-20T03:02:00.788Z,6.08
2022-10-20T03:03:02.467Z,7.07
2022-10-20T03:04:04.226Z,6.88
2022-10-20T03:05:06.387Z,7.44
2022-10-20T03:06:13.925Z,6.80
2022-10-20T03:07:15.617Z,6.53
2022-10-20T03:08:17.314Z,6.30
2022-10-20T03:09:18.922Z,6.08
2022-10-20T03:10:20.696Z,6.60
2022-10-20T03:11:22.822Z,6.74
2022-10-20T03:12:27.723Z,6.29
2022-10-20T03:13:32.303Z,6.51
2022-10-20T03:14:33.891Z,7.15
2022-10-20T03:15:36.225Z,7.66
2022-10-20T03:16:37.862Z,8.27
2022-10-20T03:17:39.575Z,10.73
2022-10-20T03:18:41.275Z,11.57
2022-10-20T03:19:43.027Z,12.38
2022-10-20T03:20:44.865Z,14.24
2022-10-20T03:21:46.868Z,13.88
2022-10-20T03:22:48.519Z,15.55
2022-10-20T03:23:50.169Z,17.08
2022-10-20T03:24:51.904Z,18.63
2022-10-20T03:25:53.663Z,21.03
2022-10-20T03:26:55.281Z,20.38
2022-10-20T03:27:56.915Z,20.85
2022-10-20T03:28:58.536Z,19.36
2022-10-20T03:30:00.211Z,18.66
2022-10-20T03:31:02.026Z,17.79
2022-10-20T03:32:03.772Z,17.15
2022-10-20T03:33:05.719Z,16.46
2022-10-20T03:34:07.403Z,15.52
2022-10-20T03:35:09.492Z,14.59
2022-10-20T03:36:11.925Z,13.74
2022-10-20T03:37:13.611Z,11.73
2022-10-20T03:38:15.536Z,11.17
2022-10-20T03:39:17.143Z,9.85
2022-10-20T03:40:18.768Z,9.21
2022-10-20T03:41:20.557Z,7.89
2022-10-20T03:42:22.187Z,7.62
2022-10-20T03:43:23.797Z,7.77
2022-10-20T03:44:25.409Z,6.80
2022-10-20T03:45:27.100Z,7.11
2022-10-20T03:46:28.733Z,7.71
2022-10-20T03:47:30.327Z,8.05
2022-10-20T03:48:32.009Z,9.18
2022-10-20T03:49:34.059Z,8.70
2022-10-20T03:50:38.450Z,8.98
2022-10-20T03:51:40.120Z,7.86
2022-10-20T03:52:41.953Z,7.15
2022-10-20T03:53:44.324Z,6.46
2022-10-20T03:54:45.928Z,6.05
2022-10-20T03:55:47.541Z,6.81
2022-10-20T03:56:49.221Z,6.44
2022-10-20T03:57:50.890Z,6.11
2022-10-20T03:58:52.529Z,6.06
2022-10-20T03:59:54.119Z,6.20
2022-10-20T04:00:55.820Z,6.54
2022-10-20T04:01:57.902Z,5.82
2022-10-20T04:02:59.601Z,6.41
2022-10-20T04:04:01.262Z,6.53
2022-10-20T04:05:03.354Z,7.51
2022-10-20T04:06:05.160Z,7.13
2022-10-20T04:07:06.787Z,6.72
2022-10-20T04:08:08.425Z,6.77
2022-10-20T04:09:10.082Z,7.37
2022-10-20T04:10:13.477Z,7.66
2022-10-20T04:11:15.078Z,9.18
2022-10-20T04:12:16.757Z,11.00
2022-10-20T04:13:18.395Z,13.11
2022-10-20T04:14:20.105Z,15.70
2022-10-20T04:15:21.698Z,16.41
2022-10-20T04:16:24.095Z,15.63
2022-10-20T04:17:25.860Z,15.23
2022-10-20T04:18:27.452Z,15.41
2022-10-20T04:19:29.045Z,14.30
2022-10-20T04:20:30.657Z,14.31
2022-10-20T04:21:32.331Z,13.68
2022-10-20T04:22:34.598Z,14.57
2022-10-20T04:23:36.825Z,13.77
2022-10-20T04:24:38.697Z,13.80
2022-10-20T04:25:45.605Z,13.65
2022-10-20T04:27:55.365Z,13.37
2022-10-20T04:28:57.326Z,13.04
2022-10-20T04:29:58.969Z,13.02
2022-10-20T04:31:00.874Z,12.95
2022-10-20T04:32:02.528Z,12.35
2022-10-20T04:33:04.395Z,12.86
2022-10-20T04:34:06.104Z,12.58
2022-10-20T04:35:08.230Z,12.69
2022-10-20T04:36:12.822Z,11.87
2022-10-20T04:37:14.410Z,11.46
2022-10-20T04:38:16.095Z,12.32
2022-10-20T04:39:17.998Z,12.35
2022-10-20T04:40:19.589Z,12.13
2022-10-20T04:41:21.233Z,10.83
2022-10-20T04:42:22.846Z,12.01
2022-10-20T04:43:24.989Z,10.91
2022-10-20T04:44:26.623Z,10.58
2022-10-20T04:45:28.667Z,11.74
2022-10-20T04:46:30.548Z,11.76
2022-10-20T04:47:33.882Z,10.78
2022-10-20T04:48:37.463Z,11.52
2022-10-20T04:49:41.174Z,11.03
2022-10-20T04:50:42.965Z,10.82
2022-10-20T04:51:44.606Z,11.40
2022-10-20T04:52:46.225Z,10.72
2022-10-20T04:53:47.836Z,10.33
2022-10-20T04:54:49.853Z,9.85
2022-10-20T04:55:55.497Z,9.57
2022-10-20T04:56:57.306Z,10.65
2022-10-20T04:57:58.915Z,10.50
2022-10-20T04:59:00.569Z,10.30
2022-10-20T05:00:02.370Z,8.75
2022-10-20T05:01:07.741Z,10.34
2022-10-20T05:02:11.327Z,10.28
2022-10-20T05:03:12.941Z,10.32
2022-10-20T05:04:20.902Z,10.15
2022-10-20T05:05:22.521Z,9.70
2022-10-20T05:06:27.366Z,10.21
2022-10-20T05:07:30.629Z,11.39
2022-10-20T05:08:32.310Z,11.12
2022-10-20T05:09:34.061Z,13.04
2022-10-20T05:10:36.706Z,14.54
2022-10-20T05:11:39.024Z,13.77
2022-10-20T05:12:40.630Z,12.87
2022-10-20T05:13:43.208Z,12.98
2022-10-20T05:14:44.774Z,12.30
2022-10-20T05:15:52.296Z,12.34
2022-10-20T05:16:54.044Z,11.30
2022-10-20T05:17:55.754Z,12.00
2022-10-20T05:18:58.181Z,11.51
2022-10-20T05:19:59.842Z,12.10
2022-10-20T05:21:14.044Z,11.09
2022-10-20T05:22:15.664Z,11.23
2022-10-20T05:23:17.252Z,11.82
2022-10-20T05:24:21.375Z,11.49
2022-10-20T05:25:36.079Z,10.92
2022-10-20T05:26:38.567Z,10.89
2022-10-20T05:27:40.249Z,10.61
2022-10-20T05:28:48.129Z,10.20
2022-10-20T05:29:49.708Z,10.21
2022-10-20T05:30:51.399Z,9.98
2022-10-20T05:31:53.017Z,10.95
2022-10-20T05:32:54.630Z,10.83
2022-10-20T05:33:57.815Z,10.93
2022-10-20T05:34:59.424Z,10.35
2022-10-20T05:36:06.410Z,10.82
2022-10-20T05:37:08.057Z,10.00
2022-10-20T05:38:09.659Z,11.13
2022-10-20T05:39:11.611Z,11.27
2022-10-20T05:40:13.259Z,10.73
2022-10-20T05:41:17.785Z,11.16
2022-10-20T05:42:19.543Z,11.53
2022-10-20T05:43:21.270Z,11.30
2022-10-20T05:44:22.889Z,11.94
2022-10-20T05:45:24.551Z,12.91
2022-10-20T05:46:29.490Z,12.01
2022-10-20T05:47:31.270Z,12.16
2022-10-20T05:48:34.045Z,14.12
2022-10-20T05:49:35.756Z,18.41
2022-10-20T05:50:37.557Z,24.97
2022-10-20T05:51:39.312Z,24.74
2022-10-20T05:52:40.969Z,25.85
2022-10-20T05:53:44.019Z,23.91
2022-10-20T05:54:45.676Z,22.94
2022-10-20T05:55:47.312Z,22.51
2022-10-20T05:56:48.969Z,24.15
2022-10-20T05:57:51.743Z,27.88
2022-10-20T05:58:53.498Z,33.02
2022-10-20T05:59:55.142Z,33.84
2022-10-20T06:01:05.761Z,34.40
2022-10-20T06:02:09.948Z,37.13
2022-10-20T06:03:13.860Z,38.00
2022-10-20T06:04:28.126Z,36.67
2022-10-20T06:05:29.764Z,34.11
2022-10-20T06:06:31.762Z,32.69
2022-10-20T06:07:33.522Z,32.11
2022-10-20T06:08:35.234Z,32.21
2022-10-20T06:09:38.395Z,31.78
2022-10-20T06:10:40.222Z,30.36
2022-10-20T06:11:41.908Z,28.40
2022-10-20T06:12:43.520Z,30.74
2022-10-20T06:13:48.490Z,33.78
2022-10-20T06:14:53.433Z,34.66
2022-10-20T06:15:55.046Z,35.95
2022-10-20T06:16:57.492Z,34.73
2022-10-20T06:17:59.109Z,34.54
2022-10-20T06:19:00.826Z,35.24
2022-10-20T06:20:02.541Z,33.45
2022-10-20T06:21:11.101Z,30.90
2022-10-20T06:22:13.628Z,31.59
2022-10-20T06:23:15.266Z,29.30
2022-10-20T06:24:18.711Z,27.31
2022-10-20T06:25:20.352Z,24.19
2022-10-20T06:26:24.509Z,25.32
2022-10-20T06:27:26.131Z,24.88
2022-10-20T06:28:30.550Z,26.05
2022-10-20T06:29:32.244Z,24.30
2022-10-20T06:30:33.834Z,22.34
2022-10-20T06:31:41.331Z,19.70
2022-10-20T06:32:43.007Z,19.43
2022-10-20T06:33:46.202Z,21.72
2022-10-20T06:34:47.936Z,23.04
2022-10-20T06:35:49.579Z,21.42
2022-10-20T06:36:52.240Z,18.61
2022-10-20T06:37:54.227Z,16.05
2022-10-20T06:38:59.219Z,14.18
2022-10-20T06:40:00.921Z,12.76
2022-10-20T06:41:04.092Z,13.24
2022-10-20T06:42:09.647Z,12.90
2022-10-20T06:43:19.780Z,13.17
2022-10-20T06:44:24.112Z,14.61
2022-10-20T06:45:25.780Z,16.21
2022-10-20T06:46:30.279Z,17.96
2022-10-20T06:47:31.970Z,19.14
2022-10-20T06:48:35.025Z,19.40
2022-10-20T06:49:37.357Z,17.69
2022-10-20T06:50:39.205Z,16.55
2022-10-20T06:51:41.156Z,16.16
2022-10-20T06:52:42.861Z,15.66
2022-10-20T06:53:46.888Z,15.21
2022-10-20T06:54:48.769Z,13.93
2022-10-20T06:56:02.315Z,12.03
2022-10-20T06:57:04.078Z,12.22
2022-10-20T06:58:05.722Z,10.74
2022-10-20T06:59:07.407Z,10.34
2022-10-20T07:00:09.618Z,10.15
2022-10-20T07:01:14.872Z,10.21
2022-10-20T07:02:17.306Z,10.45
2022-10-20T07:03:18.974Z,10.74
2022-10-20T07:04:20.905Z,9.76
2022-10-20T07:05:22.615Z,9.52
2022-10-20T07:06:30.792Z,9.73
2022-10-20T07:07:32.537Z,10.21
2022-10-20T07:08:36.190Z,11.76
2022-10-20T07:09:38.023Z,11.50
2022-10-20T07:10:39.728Z,10.76
2022-10-20T07:11:42.190Z,9.84
2022-10-20T07:12:43.830Z,8.23
2022-10-20T07:13:46.848Z,8.21
2022-10-20T07:14:48.829Z,7.89
2022-10-20T07:15:55.112Z,7.45
2022-10-20T07:16:56.820Z,7.42
2022-10-20T07:17:58.514Z,7.53
2022-10-20T07:19:03.069Z,7.02
2022-10-20T07:20:05.917Z,6.87
2022-10-20T07:21:13.028Z,6.74
2022-10-20T07:22:14.694Z,7.25
2022-10-20T07:23:16.512Z,7.39
2022-10-20T07:24:18.089Z,6.41
2022-10-20T07:25:21.832Z,5.86
2022-10-20T07:26:26.649Z,5.73
2022-10-20T07:27:28.267Z,5.63
2022-10-20T07:28:30.226Z,5.00
2022-10-20T07:30:40.213Z,4.83
2022-10-20T07:31:47.336Z,4.57
2022-10-20T07:32:49.310Z,4.32
2022-10-20T07:34:06.758Z,4.58
2022-10-20T07:35:13.345Z,4.32
2022-10-20T07:36:17.995Z,3.52
2022-10-20T07:37:19.647Z,2.95
2022-10-20T07:38:21.268Z,2.67
2022-10-20T07:39:23.738Z,2.97
2022-10-20T07:41:32.308Z,2.77
2022-10-20T07:42:34.230Z,2.71
2022-10-20T07:43:37.680Z,2.53
2022-10-20T07:44:39.278Z,2.63
2022-10-20T07:45:40.966Z,1.89
2022-10-20T07:46:42.591Z,1.75
2022-10-20T07:47:47.603Z,1.89
2022-10-20T07:48:49.572Z,2.18
2022-10-20T07:49:51.194Z,2.57
2022-10-20T07:50:52.861Z,3.19
2022-10-20T07:51:55.436Z,3.40
2022-10-20T07:52:57.097Z,3.43
2022-10-20T07:54:02.155Z,3.26
2022-10-20T07:55:17.738Z,3.07
2022-10-20T07:56:29.067Z,3.62
2022-10-20T07:57:30.713Z,3.18
2022-10-20T07:58:32.368Z,4.00
2022-10-20T07:59:34.579Z,3.77
2022-10-20T08:00:36.489Z,3.18
2022-10-20T08:01:38.645Z,2.34
2022-10-20T08:02:43.220Z,2.35
2022-10-20T08:03:44.832Z,2.45
2022-10-20T08:04:46.564Z,2.67
2022-10-20T08:05:48.245Z,2.48
2022-10-20T08:06:49.925Z,2.65
2022-10-20T08:07:51.583Z,2.83
2022-10-20T08:08:54.808Z,2.60
2022-10-20T08:09:56.541Z,2.24
2022-10-20T08:10:58.653Z,2.31
2022-10-20T08:12:00.354Z,2.82
2022-10-20T08:13:02.263Z,3.02
2022-10-20T08:14:04.439Z,3.50
2022-10-20T08:15:06.446Z,3.09
2022-10-20T08:16:17.254Z,3.47
2022-10-20T08:17:19.356Z,3.16
2022-10-20T08:18:26.277Z,2.99
2022-10-20T08:19:35.757Z,3.05
2022-10-20T08:20:37.478Z,2.75
2022-10-20T08:21:39.106Z,2.30
2022-10-20T08:22:40.753Z,2.19
2022-10-20T08:23:45.604Z,1.77
2022-10-20T08:24:47.796Z,1.53
2022-10-20T08:25:55.893Z,1.26
2022-10-20T08:26:57.513Z,1.35
2022-10-20T08:29:06.250Z,1.39
2022-10-20T08:30:24.338Z,1.19
2022-10-20T08:31:26.213Z,1.53
2022-10-20T08:32:27.810Z,1.50
2022-10-20T08:33:29.503Z,1.29
2022-10-20T08:34:31.313Z,1.22
2022-10-20T08:35:33.089Z,0.94
2022-10-20T08:36:34.805Z,1.02
2022-10-20T08:37:36.790Z,1.10
2022-10-20T08:38:39.775Z,1.19
2022-10-20T08:39:42.268Z,1.17
2022-10-20T08:40:44.530Z,1.38
2022-10-20T08:43:19.872Z,1.58
2022-10-20T08:44:29.098Z,1.60
2022-10-20T08:45:34.715Z,1.32
2022-10-20T08:46:40.899Z,1.54
2022-10-20T08:47:45.440Z,1.60
2022-10-20T08:48:48.529Z,1.53
2022-10-20T08:49:50.907Z,1.61
2022-10-20T08:50:54.142Z,1.90
2022-10-20T08:51:55.846Z,1.62
2022-10-20T08:53:00.665Z,1.89
2022-10-20T08:54:03.381Z,2.08
2022-10-20T08:55:06.247Z,1.77
2022-10-20T08:56:13.180Z,1.37
2022-10-20T08:57:35.918Z,1.58
2022-10-20T08:58:43.414Z,1.87
2022-10-20T08:59:45.045Z,1.31
2022-10-20T09:00:48.588Z,1.32
2022-10-20T09:01:50.372Z,1.45
2022-10-20T09:02:52.277Z,1.48
2022-10-20T09:04:24.876Z,1.59
2022-10-20T09:05:31.458Z,1.29
2022-10-20T09:06:35.294Z,1.41
2022-10-20T09:07:39.800Z,1.53
2022-10-20T09:08:43.881Z,1.47
2022-10-20T09:09:46.701Z,1.13
2022-10-20T09:10:52.352Z,1.03
2022-10-20T09:12:04.557Z,1.24
2022-10-20T09:13:23.571Z,1.51
2022-10-20T09:14:26.370Z,2.40
2022-10-20T09:15:29.623Z,1.92
2022-10-20T09:16:42.015Z,1.93
2022-10-20T09:18:00.954Z,1.42
2022-10-20T09:19:03.003Z,1.87
2022-10-20T09:20:18.428Z,1.77
2022-10-20T09:21:22.651Z,1.60
2022-10-20T09:22:32.146Z,1.68
2022-10-20T09:23:42.452Z,1.84
2022-10-20T09:24:46.738Z,1.61
2022-10-20T09:25:51.501Z,1.52
2022-10-20T09:26:58.600Z,1.47
2022-10-20T09:28:01.398Z,1.80
2022-10-20T09:29:15.188Z,1.84
2022-10-20T09:30:21.080Z,1.83
2022-10-20T09:31:32.822Z,1.96
2022-10-20T09:32:51.407Z,2.96
2022-10-20T09:33:53.184Z,2.92
2022-10-20T09:35:19.483Z,3.86
2022-10-20T09:36:23.595Z,4.07
2022-10-20T09:37:25.391Z,3.21
2022-10-20T09:38:29.827Z,3.33
2022-10-20T09:39:49.216Z,3.75
2022-10-20T09:41:17.333Z,3.87
2022-10-20T09:42:27.834Z,2.27
2022-10-20T09:43:29.696Z,3.23
2022-10-20T09:44:35.913Z,3.53
2022-10-20T09:46:00.015Z,3.74
2022-10-20T09:47:02.680Z,3.49
2022-10-20T09:48:29.008Z,3.73
2022-10-20T09:49:39.561Z,3.47
2022-10-20T09:50:50.020Z,3.22
2022-10-20T09:53:05.827Z,2.78
2022-10-20T09:54:18.304Z,3.00
2022-10-20T09:55:25.899Z,3.96
2022-10-20T09:56:35.443Z,3.58
2022-10-20T09:57:37.159Z,4.12
2022-10-20T09:58:39.790Z,3.71
2022-10-20T09:59:46.978Z,3.13
2022-10-20T10:00:59.565Z,3.16
2022-10-20T10:02:13.433Z,3.52
2022-10-20T10:03:22.448Z,3.70
2022-10-20T10:04:42.646Z,3.48
2022-10-20T10:05:44.382Z,3.74
2022-10-20T10:06:46.253Z,4.14
2022-10-20T10:07:59.796Z,4.47
2022-10-20T10:09:02.695Z,4.97
2022-10-20T10:10:24.122Z,3.78
2022-10-20T10:11:34.289Z,4.04
2022-10-20T10:12:36.776Z,3.83
2022-10-20T10:13:44.154Z,3.75
2022-10-20T10:14:55.971Z,3.98
2022-10-20T10:16:04.457Z,4.83
2022-10-20T10:17:06.186Z,4.06
2022-10-20T10:18:23.093Z,4.04
2022-10-20T10:19:31.753Z,3.55
2022-10-20T10:20:41.041Z,3.23
2022-10-20T10:21:51.462Z,3.39
2022-10-20T10:22:53.255Z,4.17
2022-10-20T10:23:59.161Z,5.67
2022-10-20T10:25:01.998Z,4.21
2022-10-20T10:26:26.141Z,3.38
2022-10-20T10:27:33.465Z,3.24
2022-10-20T10:28:40.202Z,3.20
2022-10-20T10:29:41.870Z,2.48
2022-10-20T10:30:46.918Z,2.45
2022-10-20T10:32:25.304Z,2.41
2022-10-20T10:33:29.074Z,2.90
2022-10-20T10:34:59.900Z,2.70
2022-10-20T10:36:05.452Z,2.53
2022-10-20T10:37:13.793Z,2.54
2022-10-20T10:38:15.649Z,3.16
2022-10-20T10:39:17.309Z,2.93
2022-10-20T10:40:22.369Z,3.11
2022-10-20T10:41:41.690Z,3.25
2022-10-20T10:42:55.988Z,3.49
2022-10-20T10:44:15.647Z,3.60
2022-10-20T10:45:51.518Z,2.96
2022-10-20T10:47:20.648Z,2.68
2022-10-20T10:48:59.293Z,2.37
2022-10-20T10:50:24.579Z,2.30
2022-10-20T10:52:04.085Z,2.56
2022-10-20T10:53:20.970Z,2.81
2022-10-20T10:54:41.864Z,3.16
2022-10-20T10:55:57.232Z,2.19
2022-10-20T10:57:31.474Z,2.08
2022-10-20T10:58:46.987Z,2.75
2022-10-20T10:59:52.267Z,2.57
2022-10-20T11:01:09.706Z,2.99
2022-10-20T11:02:46.172Z,2.30
2022-10-20T11:04:05.812Z,2.39
2022-10-20T11:05:21.376Z,2.82
2022-10-20T11:06:37.887Z,2.07
2022-10-20T11:08:17.057Z,1.96
2022-10-20T11:09:32.991Z,1.92
2022-10-20T11:11:01.771Z,1.76
2022-10-20T11:13:00.402Z,2.08
2022-10-20T11:14:17.181Z,2.60
2022-10-20T11:15:33.910Z,2.65
2022-10-20T11:17:17.072Z,2.54
2022-10-20T11:18:51.670Z,3.30
2022-10-20T11:20:07.073Z,5.16
2022-10-20T11:21:20.553Z,4.07
2022-10-20T11:22:51.054Z,2.85
2022-10-20T11:24:30.193Z,2.61
2022-10-20T11:26:13.205Z,2.70
2022-10-20T11:27:22.516Z,2.47
2022-10-20T11:28:44.211Z,2.32
2022-10-20T11:29:55.044Z,2.44
2022-10-20T11:30:59.424Z,2.77
2022-10-20T11:32:18.482Z,2.71
2022-10-20T11:33:26.786Z,3.34
2022-10-20T11:34:44.518Z,3.20
2022-10-20T11:35:51.838Z,2.96
2022-10-20T11:37:06.266Z,3.61
2022-10-20T11:38:37.183Z,2.58
2022-10-20T11:39:50.133Z,2.61
2022-10-20T11:41:12.565Z,2.48
2022-10-20T11:42:50.279Z,3.13
2022-10-20T11:44:21.518Z,2.46
2022-10-20T11:45:35.719Z,2.06
2022-10-20T11:46:43.112Z,1.97
2022-10-20T11:47:46.452Z,2.27
2022-10-20T11:48:52.001Z,2.11
2022-10-20T11:49:53.905Z,2.14
2022-10-20T11:51:15.131Z,2.20
2022-10-20T11:52:41.383Z,3.70
2022-10-20T11:54:00.675Z,8.08
2022-10-20T11:55:14.969Z,9.64
2022-10-20T11:56:44.538Z,8.33
2022-10-20T11:58:16.417Z,7.15
2022-10-20T11:59:39.804Z,4.57
2022-10-20T12:01:03.424Z,5.39
2022-10-20T12:02:42.670Z,7.11
2022-10-20T12:04:22.017Z,4.21
2022-10-20T12:05:48.200Z,2.95
2022-10-20T12:07:24.049Z,6.16
2022-10-20T12:08:45.574Z,10.21
2022-10-20T12:10:11.262Z,6.07
2022-10-20T12:11:18.068Z,4.44
2022-10-20T12:12:39.042Z,3.68
2022-10-20T12:14:10.763Z,3.01
2022-10-20T12:15:27.962Z,2.27
2022-10-20T12:16:54.431Z,2.41
2022-10-20T12:18:15.920Z,2.25
2022-10-20T12:19:22.011Z,2.44
2022-10-20T12:20:23.547Z,2.18
2022-10-20T12:21:57.457Z,2.35
2022-10-20T12:22:59.227Z,2.11
2022-10-20T12:24:04.050Z,2.31
2022-10-20T12:25:05.557Z,2.46
2022-10-20T12:26:29.737Z,2.31
2022-10-20T12:27:32.758Z,2.56
2022-10-20T12:28:41.197Z,2.48
2022-10-20T12:29:42.830Z,2.61
2022-10-20T12:30:53.090Z,2.32
2022-10-20T12:32:25.460Z,2.93
2022-10-20T12:33:49.843Z,2.45
2022-10-20T12:35:01.642Z,2.51
2022-10-20T12:36:23.956Z,2.40
2022-10-20T12:37:25.605Z,2.55
2022-10-20T12:38:30.296Z,2.73
2022-10-20T12:39:31.998Z,2.40
2022-10-20T12:40:49.149Z,2.29
2022-10-20T12:42:01.848Z,2.31
2022-10-20T12:43:03.770Z,2.48
2022-10-20T12:44:18.747Z,2.48
2022-10-20T12:45:20.472Z,3.14
2022-10-20T12:46:28.373Z,5.22
2022-10-20T12:47:33.439Z,3.29
2022-10-20T12:48:43.654Z,2.61
2022-10-20T12:50:06.249Z,2.64
2022-10-20T12:51:20.994Z,2.43
2022-10-20T12:52:32.513Z,2.95
2022-10-20T12:53:35.251Z,3.07
2022-10-20T12:54:46.201Z,3.26
2022-10-20T12:56:09.073Z,3.19
2022-10-20T12:57:41.930Z,2.40
2022-10-20T12:59:08.120Z,2.36
2022-10-20T13:00:30.107Z,2.23
2022-10-20T13:02:09.960Z,2.05
2022-10-20T13:03:31.694Z,2.06
2022-10-20T13:04:53.682Z,2.18
2022-10-20T13:05:55.410Z,2.51
2022-10-20T13:06:57.068Z,5.21
2022-10-20T13:07:59.767Z,3.41
2022-10-20T13:09:04.525Z,2.26
2022-10-20T13:10:31.480Z,2.32
2022-10-20T13:11:36.058Z,2.18
2022-10-20T13:12:40.167Z,2.19
2022-10-20T13:14:07.499Z,1.91
2022-10-20T13:15:17.556Z,2.11
2022-10-20T13:16:23.010Z,1.98
2022-10-20T13:17:44.052Z,2.21
2022-10-20T13:18:50.468Z,3.50
2022-10-20T13:20:01.587Z,5.68
2022-10-20T13:21:26.108Z,11.66
2022-10-20T13:22:31.043Z,10.65
2022-10-20T13:23:43.213Z,8.02
2022-10-20T13:24:45.119Z,8.35
2022-10-20T13:25:52.125Z,9.52
2022-10-20T13:26:57.669Z,10.03
2022-10-20T13:28:14.625Z,10.53
2022-10-20T13:29:34.455Z,5.60
2022-10-20T13:30:36.849Z,4.64
2022-10-20T13:31:51.784Z,4.51
2022-10-20T13:34:02.060Z,3.77
2022-10-20T13:34:55.609Z,3.74
2022-10-20T13:36:12.401Z,4.10
2022-10-20T13:37:25.545Z,3.38
2022-10-20T13:38:42.382Z,3.28
2022-10-20T13:39:46.974Z,4.80
2022-10-20T13:41:12.135Z,4.23
2022-10-20T13:42:41.859Z,3.12
2022-10-20T13:44:04.576Z,6.47
2022-10-20T13:45:21.597Z,3.76
2022-10-20T13:46:59.747Z,7.23
2022-10-20T13:48:22.701Z,3.71
2022-10-20T13:49:43.713Z,2.21
2022-10-20T13:50:59.171Z,2.66
2022-10-20T13:52:11.584Z,2.98
2022-10-20T13:53:20.673Z,3.79
2022-10-20T13:54:27.816Z,4.16
2022-10-20T13:55:51.114Z,5.30
2022-10-20T13:56:55.082Z,4.24
2022-10-20T13:58:16.670Z,2.72
2022-10-20T13:59:25.038Z,2.16
2022-10-20T14:00:31.513Z,2.23
2022-10-20T14:01:36.449Z,2.03
2022-10-20T14:02:38.414Z,1.99
2022-10-20T14:03:44.407Z,1.93
2022-10-20T14:04:46.062Z,1.58
2022-10-20T14:05:47.881Z,1.53
2022-10-20T14:06:49.529Z,1.85
2022-10-20T14:07:52.174Z,1.92
2022-10-20T14:08:54.991Z,1.86
2022-10-20T14:09:58.234Z,1.70
2022-10-20T14:11:04.567Z,1.77
2022-10-20T14:12:22.721Z,3.06
2022-10-20T14:13:28.964Z,4.09
2022-10-20T14:14:31.583Z,3.23
2022-10-20T14:15:36.780Z,2.95
2022-10-20T14:16:39.284Z,2.39
2022-10-20T14:17:41.067Z,3.25
2022-10-20T14:18:42.709Z,2.84
2022-10-20T14:19:46.093Z,2.63
2022-10-20T14:21:05.355Z,2.98
2022-10-20T14:22:22.455Z,2.42
2022-10-20T14:23:26.154Z,3.27
2022-10-20T14:24:40.360Z,3.66
2022-10-20T14:25:43.796Z,3.17
2022-10-20T14:26:46.165Z,3.19
2022-10-20T14:27:48.317Z,3.54
2022-10-20T14:28:52.735Z,4.25
2022-10-20T14:29:56.681Z,4.09
2022-10-20T14:30:59.873Z,3.07
2022-10-20T14:32:02.006Z,3.66
2022-10-20T14:33:03.940Z,4.80
2022-10-20T14:34:05.678Z,4.22
2022-10-20T14:35:32.849Z,3.39
2022-10-20T14:36:34.572Z,3.43
2022-10-20T14:37:41.546Z,4.03
2022-10-20T14:38:49.429Z,4.35
2022-10-20T14:39:51.275Z,3.96
2022-10-20T14:40:56.795Z,3.76
2022-10-20T14:42:01.960Z,4.00
2022-10-20T14:43:15.234Z,4.08
2022-10-20T14:44:31.025Z,6.10
2022-10-20T14:45:33.722Z,6.19
2022-10-20T14:46:41.350Z,7.29
2022-10-20T14:47:43.088Z,6.13
2022-10-20T14:48:49.066Z,5.79
2022-10-20T14:49:54.960Z,6.10
2022-10-20T14:50:57.099Z,6.22
2022-10-20T14:52:00.657Z,6.05
2022-10-20T14:53:27.371Z,8.19
2022-10-20T14:54:32.609Z,14.97
2022-10-20T14:55:37.224Z,11.76
2022-10-20T14:56:54.372Z,5.31
2022-10-20T14:57:56.328Z,5.51
2022-10-20T14:59:02.415Z,5.29
2022-10-20T15:00:27.745Z,5.53
2022-10-20T15:01:32.604Z,6.71
2022-10-20T15:02:41.762Z,7.81
2022-10-20T15:03:44.514Z,41.12
2022-10-20T15:04:48.632Z,47.90